sensor_id;sensor_type;location;lat;lon;timestamp;temperature;humidity
19164;DHT22;9714;51.208;4.242;2023-04-05T00:01:06;6.60;99.90
19164;DHT22;9714;51.208;4.242;2023-04-05T00:03:52;6.50;99.90
19164;DHT22;9714;51.208;4.242;2023-04-05T00:06:24;6.30;99.90
19164;DHT22;9714;51.208;4.242;2023-04-05T00:08:51;6.00;99.90
19164;DHT22;9714;51.208;4.242;2023-04-05T00:11:20;6.20;99.90
19164;DHT22;9714;51.208;4.242;2023-04-05T00:13:47;6.10;99.90
19164;DHT22;9714;51.208;4.242;2023-04-05T00:16:29;6.20;99.90
19164;DHT22;9714;51.208;4.242;2023-04-05T00:18:58;6.20;99.90
19164;DHT22;9714;51.208;4.242;2023-04-05T00:21:28;6.30;99.90
19164;DHT22;9714;51.208;4.242;2023-04-05T00:23:56;6.10;99.90
19164;DHT22;9714;51.208;4.242;2023-04-05T00:26:24;6.10;99.90
19164;DHT22;9714;51.208;4.242;2023-04-05T00:28:52;6.20;99.90
19164;DHT22;9714;51.208;4.242;2023-04-05T00:31:19;6.20;99.90
19164;DHT22;9714;51.208;4.242;2023-04-05T00:33:46;6.10;99.90
19164;DHT22;9714;51.208;4.242;2023-04-05T00:36:15;6.20;99.90
19164;DHT22;9714;51.208;4.242;2023-04-05T00:38:45;6.00;99.90
19164;DHT22;9714;51.208;4.242;2023-04-05T00:41:15;6.00;99.90
19164;DHT22;9714;51.208;4.242;2023-04-05T00:43:43;5.80;99.90
19164;DHT22;9714;51.208;4.242;2023-04-05T00:46:11;5.80;99.90
19164;DHT22;9714;51.208;4.242;2023-04-05T00:48:42;5.70;99.90
19164;DHT22;9714;51.208;4.242;2023-04-05T00:51:15;5.60;99.90
19164;DHT22;9714;51.208;4.242;2023-04-05T00:53:50;5.70;99.90
19164;DHT22;9714;51.208;4.242;2023-04-05T00:56:34;5.50;99.90
19164;DHT22;9714;51.208;4.242;2023-04-05T00:59:04;5.40;99.90
19164;DHT22;9714;51.208;4.242;2023-04-05T01:01:32;5.50;99.90
19164;DHT22;9714;51.208;4.242;2023-04-05T01:04:04;5.40;99.90
19164;DHT22;9714;51.208;4.242;2023-04-05T01:06:46;5.30;99.90
19164;DHT22;9714;51.208;4.242;2023-04-05T01:12:44;5.40;99.90
19164;DHT22;9714;51.208;4.242;2023-04-05T01:18:34;5.40;99.90
19164;DHT22;9714;51.208;4.242;2023-04-05T01:21:33;5.50;99.90
19164;DHT22;9714;51.208;4.242;2023-04-05T01:24:15;5.30;99.90
19164;DHT22;9714;51.208;4.242;2023-04-05T01:26:55;5.10;99.90
19164;DHT22;9714;51.208;4.242;2023-04-05T01:29:46;5.10;99.90
19164;DHT22;9714;51.208;4.242;2023-04-05T01:32:36;5.10;99.90
19164;DHT22;9714;51.208;4.242;2023-04-05T01:35:21;5.20;99.90
19164;DHT22;9714;51.208;4.242;2023-04-05T01:37:54;5.10;99.90
19164;DHT22;9714;51.208;4.242;2023-04-05T01:40:29;5.10;99.90
19164;DHT22;9714;51.208;4.242;2023-04-05T01:46:22;5.20;99.90
19164;DHT22;9714;51.208;4.242;2023-04-05T01:48:51;5.10;99.90
19164;DHT22;9714;51.208;4.242;2023-04-05T01:51:34;5.00;99.90
19164;DHT22;9714;51.208;4.242;2023-04-05T01:54:17;4.90;99.90
19164;DHT22;9714;51.208;4.242;2023-04-05T01:57:15;5.10;99.90
19164;DHT22;9714;51.208;4.242;2023-04-05T01:59:50;5.10;99.90
19164;DHT22;9714;51.208;4.242;2023-04-05T02:02:25;4.90;99.90
19164;DHT22;9714;51.208;4.242;2023-04-05T02:04:52;4.90;99.90
19164;DHT22;9714;51.208;4.242;2023-04-05T02:10:43;4.60;99.90
19164;DHT22;9714;51.208;4.242;2023-04-05T02:13:17;4.60;99.90
19164;DHT22;9714;51.208;4.242;2023-04-05T02:19:09;4.50;99.90
19164;DHT22;9714;51.208;4.242;2023-04-05T02:25:00;4.50;99.90
19164;DHT22;9714;51.208;4.242;2023-04-05T02:30:50;4.60;99.90
19164;DHT22;9714;51.208;4.242;2023-04-05T02:36:41;4.80;99.90
19164;DHT22;9714;51.208;4.242;2023-04-05T02:42:30;4.70;99.90
19164;DHT22;9714;51.208;4.242;2023-04-05T02:48:20;4.60;99.90
19164;DHT22;9714;51.208;4.242;2023-04-05T02:54:44;4.80;99.90
19164;DHT22;9714;51.208;4.242;2023-04-05T02:57:48;4.90;99.90
19164;DHT22;9714;51.208;4.242;2023-04-05T03:00:22;4.80;99.90
19164;DHT22;9714;51.208;4.242;2023-04-05T03:02:50;4.70;99.90
19164;DHT22;9714;51.208;4.242;2023-04-05T03:05:17;4.60;99.90
19164;DHT22;9714;51.208;4.242;2023-04-05T03:07:51;4.50;99.90
19164;DHT22;9714;51.208;4.242;2023-04-05T03:13:42;4.60;99.90
19164;DHT22;9714;51.208;4.242;2023-04-05T03:19:21;4.50;99.90
19164;DHT22;9714;51.208;4.242;2023-04-05T03:21:52;4.50;99.90
19164;DHT22;9714;51.208;4.242;2023-04-05T03:24:32;4.40;99.90
19164;DHT22;9714;51.208;4.242;2023-04-05T03:27:01;4.40;99.90
19164;DHT22;9714;51.208;4.242;2023-04-05T03:29:37;4.20;99.90
19164;DHT22;9714;51.208;4.242;2023-04-05T03:32:10;4.10;99.90
19164;DHT22;9714;51.208;4.242;2023-04-05T03:34:40;4.10;99.90
19164;DHT22;9714;51.208;4.242;2023-04-05T03:37:15;4.00;99.90
19164;DHT22;9714;51.208;4.242;2023-04-05T03:39:48;4.00;99.90
19164;DHT22;9714;51.208;4.242;2023-04-05T03:42:23;4.00;99.90
19164;DHT22;9714;51.208;4.242;2023-04-05T03:45:21;4.00;99.90
19164;DHT22;9714;51.208;4.242;2023-04-05T03:51:30;3.80;99.90
19164;DHT22;9714;51.208;4.242;2023-04-05T03:54:05;3.90;99.90
19164;DHT22;9714;51.208;4.242;2023-04-05T03:56:32;3.90;99.90
19164;DHT22;9714;51.208;4.242;2023-04-05T03:58:59;4.00;99.90
19164;DHT22;9714;51.208;4.242;2023-04-05T04:01:43;3.90;99.90
19164;DHT22;9714;51.208;4.242;2023-04-05T04:04:10;4.00;99.90
19164;DHT22;9714;51.208;4.242;2023-04-05T04:06:39;4.10;99.90
19164;DHT22;9714;51.208;4.242;2023-04-05T04:09:07;3.90;99.90
19164;DHT22;9714;51.208;4.242;2023-04-05T04:11:37;3.90;99.90
19164;DHT22;9714;51.208;4.242;2023-04-05T04:14:03;3.70;99.90
19164;DHT22;9714;51.208;4.242;2023-04-05T04:16:31;3.60;99.90
19164;DHT22;9714;51.208;4.242;2023-04-05T04:18:59;3.70;99.90
19164;DHT22;9714;51.208;4.242;2023-04-05T04:21:27;3.70;99.90
19164;DHT22;9714;51.208;4.242;2023-04-05T04:23:58;3.80;99.90
19164;DHT22;9714;51.208;4.242;2023-04-05T04:26:31;3.70;99.90
19164;DHT22;9714;51.208;4.242;2023-04-05T04:29:08;3.80;99.90
19164;DHT22;9714;51.208;4.242;2023-04-05T04:31:39;4.10;99.90
19164;DHT22;9714;51.208;4.242;2023-04-05T04:34:12;4.00;99.90
19164;DHT22;9714;51.208;4.242;2023-04-05T04:36:41;3.90;99.90
19164;DHT22;9714;51.208;4.242;2023-04-05T04:39:34;3.80;99.90
19164;DHT22;9714;51.208;4.242;2023-04-05T04:42:04;3.60;99.90
19164;DHT22;9714;51.208;4.242;2023-04-05T04:44:35;3.60;99.90
19164;DHT22;9714;51.208;4.242;2023-04-05T04:47:02;3.50;99.90
19164;DHT22;9714;51.208;4.242;2023-04-05T04:49:30;3.30;99.90
19164;DHT22;9714;51.208;4.242;2023-04-05T04:51:57;3.40;99.90
19164;DHT22;9714;51.208;4.242;2023-04-05T04:54:24;3.40;99.90
19164;DHT22;9714;51.208;4.242;2023-04-05T04:56:53;3.40;99.90
19164;DHT22;9714;51.208;4.242;2023-04-05T04:59:20;3.40;99.90
19164;DHT22;9714;51.208;4.242;2023-04-05T05:01:47;3.40;99.90
19164;DHT22;9714;51.208;4.242;2023-04-05T05:04:14;3.40;99.90
19164;DHT22;9714;51.208;4.242;2023-04-05T05:06:43;3.50;99.90
19164;DHT22;9714;51.208;4.242;2023-04-05T05:09:10;3.50;99.90
19164;DHT22;9714;51.208;4.242;2023-04-05T05:11:39;3.30;99.90
19164;DHT22;9714;51.208;4.242;2023-04-05T05:14:22;3.20;99.90
19164;DHT22;9714;51.208;4.242;2023-04-05T05:16:49;3.30;99.90
19164;DHT22;9714;51.208;4.242;2023-04-05T05:19:19;3.30;99.90
19164;DHT22;9714;51.208;4.242;2023-04-05T05:21:48;3.20;99.90
19164;DHT22;9714;51.208;4.242;2023-04-05T05:24:16;3.20;99.90
19164;DHT22;9714;51.208;4.242;2023-04-05T05:26:43;3.20;99.90
19164;DHT22;9714;51.208;4.242;2023-04-05T05:29:10;3.20;99.90
19164;DHT22;9714;51.208;4.242;2023-04-05T05:31:37;3.20;99.90
19164;DHT22;9714;51.208;4.242;2023-04-05T05:34:04;3.20;99.90
19164;DHT22;9714;51.208;4.242;2023-04-05T05:36:32;3.30;99.90
19164;DHT22;9714;51.208;4.242;2023-04-05T05:39:00;3.30;99.90
19164;DHT22;9714;51.208;4.242;2023-04-05T05:41:29;3.20;99.90
19164;DHT22;9714;51.208;4.242;2023-04-05T05:43:57;3.40;99.90
19164;DHT22;9714;51.208;4.242;2023-04-05T05:46:24;3.50;99.90
19164;DHT22;9714;51.208;4.242;2023-04-05T05:48:52;3.40;99.90
19164;DHT22;9714;51.208;4.242;2023-04-05T05:51:19;3.50;99.90
19164;DHT22;9714;51.208;4.242;2023-04-05T05:53:46;3.50;99.90
19164;DHT22;9714;51.208;4.242;2023-04-05T05:56:14;3.60;99.90
19164;DHT22;9714;51.208;4.242;2023-04-05T05:58:41;3.90;99.90
19164;DHT22;9714;51.208;4.242;2023-04-05T06:01:09;4.00;99.90
19164;DHT22;9714;51.208;4.242;2023-04-05T06:03:39;4.00;99.90
19164;DHT22;9714;51.208;4.242;2023-04-05T06:06:08;4.00;99.90
19164;DHT22;9714;51.208;4.242;2023-04-05T06:08:36;4.10;99.90
19164;DHT22;9714;51.208;4.242;2023-04-05T06:11:04;4.30;99.90
19164;DHT22;9714;51.208;4.242;2023-04-05T06:13:32;4.30;99.90
19164;DHT22;9714;51.208;4.242;2023-04-05T06:16:00;4.40;99.90
19164;DHT22;9714;51.208;4.242;2023-04-05T06:18:27;4.40;99.90
19164;DHT22;9714;51.208;4.242;2023-04-05T06:20:55;4.40;99.90
19164;DHT22;9714;51.208;4.242;2023-04-05T06:23:22;4.50;99.90
19164;DHT22;9714;51.208;4.242;2023-04-05T06:25:49;4.60;99.90
19164;DHT22;9714;51.208;4.242;2023-04-05T06:28:18;5.00;99.90
19164;DHT22;9714;51.208;4.242;2023-04-05T06:30:50;5.10;99.90
19164;DHT22;9714;51.208;4.242;2023-04-05T06:33:25;5.20;99.90
19164;DHT22;9714;51.208;4.242;2023-04-05T06:35:54;5.30;99.90
19164;DHT22;9714;51.208;4.242;2023-04-05T06:38:26;5.60;99.90
19164;DHT22;9714;51.208;4.242;2023-04-05T06:40:59;5.60;99.90
19164;DHT22;9714;51.208;4.242;2023-04-05T06:43:29;5.90;99.90
19164;DHT22;9714;51.208;4.242;2023-04-05T06:46:04;6.30;99.90
19164;DHT22;9714;51.208;4.242;2023-04-05T06:48:40;6.70;99.90
19164;DHT22;9714;51.208;4.242;2023-04-05T06:51:09;6.80;99.90
19164;DHT22;9714;51.208;4.242;2023-04-05T06:53:42;7.00;99.90
19164;DHT22;9714;51.208;4.242;2023-04-05T06:56:10;7.10;99.90
19164;DHT22;9714;51.208;4.242;2023-04-05T06:58:40;7.20;99.90
19164;DHT22;9714;51.208;4.242;2023-04-05T07:01:10;7.20;99.90
19164;DHT22;9714;51.208;4.242;2023-04-05T07:03:40;7.30;99.90
19164;DHT22;9714;51.208;4.242;2023-04-05T07:09:24;7.80;99.90
19164;DHT22;9714;51.208;4.242;2023-04-05T07:15:24;8.20;99.90
19164;DHT22;9714;51.208;4.242;2023-04-05T07:21:24;8.70;99.90
19164;DHT22;9714;51.208;4.242;2023-04-05T07:24:11;9.40;99.90
19164;DHT22;9714;51.208;4.242;2023-04-05T07:26:55;10.10;99.90
19164;DHT22;9714;51.208;4.242;2023-04-05T07:29:25;10.60;99.90
19164;DHT22;9714;51.208;4.242;2023-04-05T07:31:52;10.20;99.90
19164;DHT22;9714;51.208;4.242;2023-04-05T07:34:27;10.30;99.90
19164;DHT22;9714;51.208;4.242;2023-04-05T07:36:56;10.80;99.90
19164;DHT22;9714;51.208;4.242;2023-04-05T07:42:49;11.20;99.90
19164;DHT22;9714;51.208;4.242;2023-04-05T07:45:19;11.60;99.90
19164;DHT22;9714;51.208;4.242;2023-04-05T07:47:50;12.20;99.90
19164;DHT22;9714;51.208;4.242;2023-04-05T07:50:23;12.40;99.90
19164;DHT22;9714;51.208;4.242;2023-04-05T07:52:54;11.90;99.90
19164;DHT22;9714;51.208;4.242;2023-04-05T07:55:21;11.60;99.90
19164;DHT22;9714;51.208;4.242;2023-04-05T07:57:52;11.90;99.90
19164;DHT22;9714;51.208;4.242;2023-04-05T08:00:31;12.20;99.90
19164;DHT22;9714;51.208;4.242;2023-04-05T08:03:17;12.90;99.90
19164;DHT22;9714;51.208;4.242;2023-04-05T08:06:09;13.30;99.90
19164;DHT22;9714;51.208;4.242;2023-04-05T08:12:00;15.00;94.80
19164;DHT22;9714;51.208;4.242;2023-04-05T08:14:37;15.60;91.50
19164;DHT22;9714;51.208;4.242;2023-04-05T08:17:27;16.30;87.70
19164;DHT22;9714;51.208;4.242;2023-04-05T08:20:00;16.50;86.20
19164;DHT22;9714;51.208;4.242;2023-04-05T08:22:35;17.10;82.80
19164;DHT22;9714;51.208;4.242;2023-04-05T08:25:03;17.60;78.80
19164;DHT22;9714;51.208;4.242;2023-04-05T08:27:33;16.90;80.30
19164;DHT22;9714;51.208;4.242;2023-04-05T08:30:03;17.20;81.40
19164;DHT22;9714;51.208;4.242;2023-04-05T08:32:31;17.20;78.90
19164;DHT22;9714;51.208;4.242;2023-04-05T08:35:08;17.60;74.40
19164;DHT22;9714;51.208;4.242;2023-04-05T08:41:32;18.40;74.10
19164;DHT22;9714;51.208;4.242;2023-04-05T08:44:17;18.70;70.20
19164;DHT22;9714;51.208;4.242;2023-04-05T08:46:49;18.70;66.00
19164;DHT22;9714;51.208;4.242;2023-04-05T08:49:27;18.10;66.70
19164;DHT22;9714;51.208;4.242;2023-04-05T08:52:07;18.00;66.20
19164;DHT22;9714;51.208;4.242;2023-04-05T08:58:09;18.30;64.80
19164;DHT22;9714;51.208;4.242;2023-04-05T09:00:50;17.70;66.20
19164;DHT22;9714;51.208;4.242;2023-04-05T09:03:25;18.70;65.70
19164;DHT22;9714;51.208;4.242;2023-04-05T09:05:57;18.60;62.70
19164;DHT22;9714;51.208;4.242;2023-04-05T09:08:28;17.20;65.40
19164;DHT22;9714;51.208;4.242;2023-04-05T09:11:01;17.40;65.90
19164;DHT22;9714;51.208;4.242;2023-04-05T09:13:34;18.30;64.20
19164;DHT22;9714;51.208;4.242;2023-04-05T09:16:03;18.90;62.50
19164;DHT22;9714;51.208;4.242;2023-04-05T09:18:36;19.40;60.10
19164;DHT22;9714;51.208;4.242;2023-04-05T09:21:06;19.70;56.00
19164;DHT22;9714;51.208;4.242;2023-04-05T09:23:36;20.50;54.80
19164;DHT22;9714;51.208;4.242;2023-04-05T09:26:17;20.10;53.80
19164;DHT22;9714;51.208;4.242;2023-04-05T09:28:47;19.90;54.60
19164;DHT22;9714;51.208;4.242;2023-04-05T09:31:30;20.80;53.20
19164;DHT22;9714;51.208;4.242;2023-04-05T09:34:04;19.30;53.60
19164;DHT22;9714;51.208;4.242;2023-04-05T09:36:32;19.60;53.20
19164;DHT22;9714;51.208;4.242;2023-04-05T09:39:09;19.80;54.10
19164;DHT22;9714;51.208;4.242;2023-04-05T09:41:39;20.60;54.10
19164;DHT22;9714;51.208;4.242;2023-04-05T09:44:07;21.40;52.80
19164;DHT22;9714;51.208;4.242;2023-04-05T09:46:35;21.60;52.60
19164;DHT22;9714;51.208;4.242;2023-04-05T09:49:06;20.60;53.00
19164;DHT22;9714;51.208;4.242;2023-04-05T09:51:40;20.10;53.30
19164;DHT22;9714;51.208;4.242;2023-04-05T09:54:13;19.90;53.00
19164;DHT22;9714;51.208;4.242;2023-04-05T09:56:53;21.00;52.60
19164;DHT22;9714;51.208;4.242;2023-04-05T09:59:22;22.00;52.10
19164;DHT22;9714;51.208;4.242;2023-04-05T10:01:53;23.00;50.70
19164;DHT22;9714;51.208;4.242;2023-04-05T10:04:21;22.10;52.10
19164;DHT22;9714;51.208;4.242;2023-04-05T10:06:51;22.40;50.90
19164;DHT22;9714;51.208;4.242;2023-04-05T10:09:21;22.10;50.70
19164;DHT22;9714;51.208;4.242;2023-04-05T10:11:49;21.80;51.60
19164;DHT22;9714;51.208;4.242;2023-04-05T10:14:16;23.30;49.40
19164;DHT22;9714;51.208;4.242;2023-04-05T10:16:49;23.10;49.30
19164;DHT22;9714;51.208;4.242;2023-04-05T10:19:32;24.00;48.50
19164;DHT22;9714;51.208;4.242;2023-04-05T10:28:46;22.90;48.50
19164;DHT22;9714;51.208;4.242;2023-04-05T10:31:36;22.60;49.40
19164;DHT22;9714;51.208;4.242;2023-04-05T10:37:35;21.40;49.10
19164;DHT22;9714;51.208;4.242;2023-04-05T10:40:07;21.50;49.30
19164;DHT22;9714;51.208;4.242;2023-04-05T10:42:41;22.10;49.10
19164;DHT22;9714;51.208;4.242;2023-04-05T10:45:17;22.00;49.40
19164;DHT22;9714;51.208;4.242;2023-04-05T10:47:56;21.50;50.60
19164;DHT22;9714;51.208;4.242;2023-04-05T10:50:30;21.70;49.30
19164;DHT22;9714;51.208;4.242;2023-04-05T10:53:00;21.50;49.70
19164;DHT22;9714;51.208;4.242;2023-04-05T10:55:30;21.70;49.90
19164;DHT22;9714;51.208;4.242;2023-04-05T10:57:58;21.90;48.90
19164;DHT22;9714;51.208;4.242;2023-04-05T11:00:29;20.80;50.20
19164;DHT22;9714;51.208;4.242;2023-04-05T11:02:56;20.60;50.50
19164;DHT22;9714;51.208;4.242;2023-04-05T11:05:31;20.70;51.50
19164;DHT22;9714;51.208;4.242;2023-04-05T11:08:03;21.00;49.70
19164;DHT22;9714;51.208;4.242;2023-04-05T11:10:36;21.20;50.00
19164;DHT22;9714;51.208;4.242;2023-04-05T11:13:12;21.40;50.90
19164;DHT22;9714;51.208;4.242;2023-04-05T11:15:45;21.90;49.80
19164;DHT22;9714;51.208;4.242;2023-04-05T11:18:20;22.00;49.30
19164;DHT22;9714;51.208;4.242;2023-04-05T11:20:49;22.60;49.60
19164;DHT22;9714;51.208;4.242;2023-04-05T11:33:10;23.40;45.70
19164;DHT22;9714;51.208;4.242;2023-04-05T11:35:59;23.40;46.70
19164;DHT22;9714;51.208;4.242;2023-04-05T11:38:31;23.30;46.50
19164;DHT22;9714;51.208;4.242;2023-04-05T11:41:05;22.80;47.40
19164;DHT22;9714;51.208;4.242;2023-04-05T11:43:35;23.10;46.00
19164;DHT22;9714;51.208;4.242;2023-04-05T11:46:10;23.20;47.90
19164;DHT22;9714;51.208;4.242;2023-04-05T11:48:41;23.90;47.00
19164;DHT22;9714;51.208;4.242;2023-04-05T11:51:09;24.30;46.80
19164;DHT22;9714;51.208;4.242;2023-04-05T11:53:37;24.10;45.50
19164;DHT22;9714;51.208;4.242;2023-04-05T11:56:09;24.80;46.10
19164;DHT22;9714;51.208;4.242;2023-04-05T11:58:43;24.10;45.00
19164;DHT22;9714;51.208;4.242;2023-04-05T12:01:14;24.50;45.80
19164;DHT22;9714;51.208;4.242;2023-04-05T12:04:02;24.20;44.90
19164;DHT22;9714;51.208;4.242;2023-04-05T12:06:34;23.60;44.80
19164;DHT22;9714;51.208;4.242;2023-04-05T12:09:06;21.90;45.50
19164;DHT22;9714;51.208;4.242;2023-04-05T12:11:33;21.40;47.00
19164;DHT22;9714;51.208;4.242;2023-04-05T12:14:05;22.20;46.70
19164;DHT22;9714;51.208;4.242;2023-04-05T12:16:32;23.40;47.20
19164;DHT22;9714;51.208;4.242;2023-04-05T12:19:03;24.30;44.50
19164;DHT22;9714;51.208;4.242;2023-04-05T12:21:30;25.00;43.90
19164;DHT22;9714;51.208;4.242;2023-04-05T12:23:59;26.20;43.20
19164;DHT22;9714;51.208;4.242;2023-04-05T12:26:30;26.50;41.50
19164;DHT22;9714;51.208;4.242;2023-04-05T12:29:05;25.90;42.60
19164;DHT22;9714;51.208;4.242;2023-04-05T12:31:37;25.60;42.30
19164;DHT22;9714;51.208;4.242;2023-04-05T12:34:07;25.90;41.40
19164;DHT22;9714;51.208;4.242;2023-04-05T12:36:35;25.50;42.20
19164;DHT22;9714;51.208;4.242;2023-04-05T12:39:14;25.30;42.40
19164;DHT22;9714;51.208;4.242;2023-04-05T12:41:42;25.70;41.60
19164;DHT22;9714;51.208;4.242;2023-04-05T12:44:16;25.60;41.10
19164;DHT22;9714;51.208;4.242;2023-04-05T12:46:59;25.60;41.50
19164;DHT22;9714;51.208;4.242;2023-04-05T12:49:34;26.10;41.20
19164;DHT22;9714;51.208;4.242;2023-04-05T12:52:02;25.10;41.50
19164;DHT22;9714;51.208;4.242;2023-04-05T12:54:32;25.10;40.70
19164;DHT22;9714;51.208;4.242;2023-04-05T12:57:01;25.60;40.90
19164;DHT22;9714;51.208;4.242;2023-04-05T12:59:33;27.10;40.30
19164;DHT22;9714;51.208;4.242;2023-04-05T13:02:01;25.30;40.20
19164;DHT22;9714;51.208;4.242;2023-04-05T13:04:33;25.70;40.90
19164;DHT22;9714;51.208;4.242;2023-04-05T13:07:00;25.10;41.30
19164;DHT22;9714;51.208;4.242;2023-04-05T13:09:27;25.80;41.50
19164;DHT22;9714;51.208;4.242;2023-04-05T13:11:58;25.60;40.40
19164;DHT22;9714;51.208;4.242;2023-04-05T13:14:28;25.70;39.90
19164;DHT22;9714;51.208;4.242;2023-04-05T13:16:55;25.00;41.50
19164;DHT22;9714;51.208;4.242;2023-04-05T13:19:22;25.30;41.40
19164;DHT22;9714;51.208;4.242;2023-04-05T13:21:52;25.40;41.00
19164;DHT22;9714;51.208;4.242;2023-04-05T13:24:20;25.70;40.30
19164;DHT22;9714;51.208;4.242;2023-04-05T13:26:48;25.80;40.00
19164;DHT22;9714;51.208;4.242;2023-04-05T13:29:19;25.70;40.60
19164;DHT22;9714;51.208;4.242;2023-04-05T13:31:48;25.60;41.50
19164;DHT22;9714;51.208;4.242;2023-04-05T13:34:21;25.60;41.20
19164;DHT22;9714;51.208;4.242;2023-04-05T13:36:51;25.90;41.20
19164;DHT22;9714;51.208;4.242;2023-04-05T13:39:20;23.50;42.10
19164;DHT22;9714;51.208;4.242;2023-04-05T13:41:51;23.60;42.90
19164;DHT22;9714;51.208;4.242;2023-04-05T13:44:25;23.50;42.70
19164;DHT22;9714;51.208;4.242;2023-04-05T13:46:55;23.10;43.00
19164;DHT22;9714;51.208;4.242;2023-04-05T13:49:23;25.00;42.00
19164;DHT22;9714;51.208;4.242;2023-04-05T13:52:29;26.40;40.80
19164;DHT22;9714;51.208;4.242;2023-04-05T13:58:18;23.60;41.10
19164;DHT22;9714;51.208;4.242;2023-04-05T14:04:07;23.50;43.40
19164;DHT22;9714;51.208;4.242;2023-04-05T14:06:41;25.10;42.00
19164;DHT22;9714;51.208;4.242;2023-04-05T14:09:10;25.30;42.00
19164;DHT22;9714;51.208;4.242;2023-04-05T14:11:39;25.30;42.10
19164;DHT22;9714;51.208;4.242;2023-04-05T14:14:06;25.00;42.60
19164;DHT22;9714;51.208;4.242;2023-04-05T14:16:33;25.70;41.70
19164;DHT22;9714;51.208;4.242;2023-04-05T14:19:03;25.20;41.70
19164;DHT22;9714;51.208;4.242;2023-04-05T14:21:38;24.30;42.10
19164;DHT22;9714;51.208;4.242;2023-04-05T14:24:10;25.30;41.90
19164;DHT22;9714;51.208;4.242;2023-04-05T14:26:38;25.90;42.40
19164;DHT22;9714;51.208;4.242;2023-04-05T14:29:06;26.90;40.90
19164;DHT22;9714;51.208;4.242;2023-04-05T14:31:34;26.30;40.60
19164;DHT22;9714;51.208;4.242;2023-04-05T14:34:05;25.50;41.20
19164;DHT22;9714;51.208;4.242;2023-04-05T14:36:37;25.30;41.60
19164;DHT22;9714;51.208;4.242;2023-04-05T14:39:04;24.80;41.60
19164;DHT22;9714;51.208;4.242;2023-04-05T14:41:33;25.20;42.90
19164;DHT22;9714;51.208;4.242;2023-04-05T14:44:00;25.10;42.50
19164;DHT22;9714;51.208;4.242;2023-04-05T14:46:32;24.90;41.70
19164;DHT22;9714;51.208;4.242;2023-04-05T14:49:01;24.50;42.00
19164;DHT22;9714;51.208;4.242;2023-04-05T14:51:28;24.90;43.70
19164;DHT22;9714;51.208;4.242;2023-04-05T14:53:55;25.50;42.20
19164;DHT22;9714;51.208;4.242;2023-04-05T14:56:32;25.70;42.10
19164;DHT22;9714;51.208;4.242;2023-04-05T14:59:02;25.10;41.60
19164;DHT22;9714;51.208;4.242;2023-04-05T15:01:30;25.00;42.70
19164;DHT22;9714;51.208;4.242;2023-04-05T15:04:00;24.40;42.60
19164;DHT22;9714;51.208;4.242;2023-04-05T15:06:31;25.20;43.10
19164;DHT22;9714;51.208;4.242;2023-04-05T15:09:01;26.20;41.60
19164;DHT22;9714;51.208;4.242;2023-04-05T15:11:36;25.40;41.80
19164;DHT22;9714;51.208;4.242;2023-04-05T15:14:05;24.40;43.20
19164;DHT22;9714;51.208;4.242;2023-04-05T15:16:32;24.10;43.70
19164;DHT22;9714;51.208;4.242;2023-04-05T15:19:07;25.10;43.10
19164;DHT22;9714;51.208;4.242;2023-04-05T15:21:36;25.10;42.10
19164;DHT22;9714;51.208;4.242;2023-04-05T15:27:19;23.30;41.90
19164;DHT22;9714;51.208;4.242;2023-04-05T15:29:51;23.80;43.20
19164;DHT22;9714;51.208;4.242;2023-04-05T15:32:18;24.20;42.40
19164;DHT22;9714;51.208;4.242;2023-04-05T15:34:46;24.70;42.20
19164;DHT22;9714;51.208;4.242;2023-04-05T15:37:14;24.10;42.10
19164;DHT22;9714;51.208;4.242;2023-04-05T15:39:42;23.40;41.60
19164;DHT22;9714;51.208;4.242;2023-04-05T15:42:09;23.10;42.10
19164;DHT22;9714;51.208;4.242;2023-04-05T15:44:55;23.40;41.60
19164;DHT22;9714;51.208;4.242;2023-04-05T15:47:30;23.20;41.90
19164;DHT22;9714;51.208;4.242;2023-04-05T15:50:00;23.40;41.90
19164;DHT22;9714;51.208;4.242;2023-04-05T15:52:29;22.90;41.80
19164;DHT22;9714;51.208;4.242;2023-04-05T15:55:12;22.70;41.70
19164;DHT22;9714;51.208;4.242;2023-04-05T15:57:48;22.90;42.30
19164;DHT22;9714;51.208;4.242;2023-04-05T16:00:28;22.80;41.70
19164;DHT22;9714;51.208;4.242;2023-04-05T16:03:04;22.40;41.90
19164;DHT22;9714;51.208;4.242;2023-04-05T16:05:38;23.60;41.00
19164;DHT22;9714;51.208;4.242;2023-04-05T16:08:05;23.50;40.70
19164;DHT22;9714;51.208;4.242;2023-04-05T16:10:35;23.40;40.00
19164;DHT22;9714;51.208;4.242;2023-04-05T16:13:05;23.80;40.60
19164;DHT22;9714;51.208;4.242;2023-04-05T16:15:36;23.30;41.00
19164;DHT22;9714;51.208;4.242;2023-04-05T16:18:05;22.30;41.60
19164;DHT22;9714;51.208;4.242;2023-04-05T16:20:35;22.70;40.90
19164;DHT22;9714;51.208;4.242;2023-04-05T16:23:07;22.40;41.60
19164;DHT22;9714;51.208;4.242;2023-04-05T16:25:37;22.40;41.50
19164;DHT22;9714;51.208;4.242;2023-04-05T16:28:13;22.40;41.60
19164;DHT22;9714;51.208;4.242;2023-04-05T16:30:42;22.00;42.60
19164;DHT22;9714;51.208;4.242;2023-04-05T16:33:11;22.30;42.10
19164;DHT22;9714;51.208;4.242;2023-04-05T16:35:44;21.70;42.90
19164;DHT22;9714;51.208;4.242;2023-04-05T16:38:11;21.60;42.70
19164;DHT22;9714;51.208;4.242;2023-04-05T16:40:39;21.50;43.20
19164;DHT22;9714;51.208;4.242;2023-04-05T16:43:06;21.90;42.20
19164;DHT22;9714;51.208;4.242;2023-04-05T16:45:33;21.50;42.70
19164;DHT22;9714;51.208;4.242;2023-04-05T16:48:02;21.30;42.70
19164;DHT22;9714;51.208;4.242;2023-04-05T16:50:29;21.40;42.80
19164;DHT22;9714;51.208;4.242;2023-04-05T16:52:56;21.50;42.60
19164;DHT22;9714;51.208;4.242;2023-04-05T16:55:23;21.30;42.70
19164;DHT22;9714;51.208;4.242;2023-04-05T16:57:53;21.00;42.60
19164;DHT22;9714;51.208;4.242;2023-04-05T17:00:22;20.90;43.00
19164;DHT22;9714;51.208;4.242;2023-04-05T17:02:49;20.80;43.60
19164;DHT22;9714;51.208;4.242;2023-04-05T17:05:18;20.60;43.50
19164;DHT22;9714;51.208;4.242;2023-04-05T17:07:45;19.90;44.70
19164;DHT22;9714;51.208;4.242;2023-04-05T17:10:13;19.70;45.00
19164;DHT22;9714;51.208;4.242;2023-04-05T17:12:40;19.40;46.00
19164;DHT22;9714;51.208;4.242;2023-04-05T17:15:09;18.90;46.20
19164;DHT22;9714;51.208;4.242;2023-04-05T17:17:37;18.60;46.80
19164;DHT22;9714;51.208;4.242;2023-04-05T17:20:10;18.30;47.80
19164;DHT22;9714;51.208;4.242;2023-04-05T17:22:58;18.00;48.40
19164;DHT22;9714;51.208;4.242;2023-04-05T17:25:39;17.80;47.90
19164;DHT22;9714;51.208;4.242;2023-04-05T17:28:06;17.70;48.70
19164;DHT22;9714;51.208;4.242;2023-04-05T17:30:34;17.40;50.40
19164;DHT22;9714;51.208;4.242;2023-04-05T17:33:03;17.60;50.00
19164;DHT22;9714;51.208;4.242;2023-04-05T17:35:32;17.30;50.70
19164;DHT22;9714;51.208;4.242;2023-04-05T17:38:01;17.20;51.10
19164;DHT22;9714;51.208;4.242;2023-04-05T17:40:30;17.10;51.20
19164;DHT22;9714;51.208;4.242;2023-04-05T17:43:17;17.00;51.30
19164;DHT22;9714;51.208;4.242;2023-04-05T17:45:48;17.00;51.80
19164;DHT22;9714;51.208;4.242;2023-04-05T17:48:21;16.70;52.50
19164;DHT22;9714;51.208;4.242;2023-04-05T17:50:48;16.70;52.20
19164;DHT22;9714;51.208;4.242;2023-04-05T17:53:26;16.70;52.50
19164;DHT22;9714;51.208;4.242;2023-04-05T17:55:55;16.60;52.30
19164;DHT22;9714;51.208;4.242;2023-04-05T17:58:22;16.20;52.60
19164;DHT22;9714;51.208;4.242;2023-04-05T18:00:50;16.10;52.80
19164;DHT22;9714;51.208;4.242;2023-04-05T18:03:17;16.00;52.80